sensor_id;sensor_type;location;lat;lon;timestamp;P1;durP1;ratioP1;P2;durP2;ratioP2
37641;SDS011;23486;51.956;5.888;2023-02-02T00:00:11;19.67;;;2.53;;
37641;SDS011;23486;51.956;5.888;2023-02-02T00:02:38;15.13;;;2.35;;
37641;SDS011;23486;51.956;5.888;2023-02-02T00:05:24;20.17;;;2.55;;
37641;SDS011;23486;51.956;5.888;2023-02-02T00:07:56;13.75;;;2.58;;
37641;SDS011;23486;51.956;5.888;2023-02-02T00:10:21;20.58;;;4.25;;
37641;SDS011;23486;51.956;5.888;2023-02-02T00:12:47;26.40;;;3.92;;
37641;SDS011;23486;51.956;5.888;2023-02-02T00:15:12;18.60;;;2.90;;
37641;SDS011;23486;51.956;5.888;2023-02-02T00:17:38;24.67;;;3.45;;
37641;SDS011;23486;51.956;5.888;2023-02-02T00:20:04;20.00;;;4.30;;
37641;SDS011;23486;51.956;5.888;2023-02-02T00:22:29;22.35;;;3.25;;
37641;SDS011;23486;51.956;5.888;2023-02-02T00:24:55;23.83;;;4.25;;
37641;SDS011;23486;51.956;5.888;2023-02-02T00:27:23;20.50;;;3.70;;
37641;SDS011;23486;51.956;5.888;2023-02-02T00:29:49;19.13;;;3.53;;
37641;SDS011;23486;51.956;5.888;2023-02-02T00:32:17;17.52;;;3.75;;
37641;SDS011;23486;51.956;5.888;2023-02-02T00:34:44;21.67;;;2.95;;
37641;SDS011;23486;51.956;5.888;2023-02-02T00:37:09;17.63;;;2.65;;
37641;SDS011;23486;51.956;5.888;2023-02-02T00:39:35;18.02;;;2.45;;
37641;SDS011;23486;51.956;5.888;2023-02-02T00:42:00;30.77;;;4.60;;
37641;SDS011;23486;51.956;5.888;2023-02-02T00:44:26;23.02;;;2.92;;
37641;SDS011;23486;51.956;5.888;2023-02-02T00:47:10;30.48;;;3.92;;
37641;SDS011;23486;51.956;5.888;2023-02-02T00:49:36;17.77;;;3.03;;
37641;SDS011;23486;51.956;5.888;2023-02-02T00:52:02;15.60;;;2.50;;
37641;SDS011;23486;51.956;5.888;2023-02-02T00:54:27;22.30;;;3.20;;
37641;SDS011;23486;51.956;5.888;2023-02-02T00:56:53;18.20;;;2.55;;
37641;SDS011;23486;51.956;5.888;2023-02-02T00:59:19;20.48;;;2.47;;
37641;SDS011;23486;51.956;5.888;2023-02-02T01:01:44;26.67;;;3.10;;
37641;SDS011;23486;51.956;5.888;2023-02-02T01:04:10;23.58;;;3.40;;
37641;SDS011;23486;51.956;5.888;2023-02-02T01:06:36;21.30;;;3.33;;
37641;SDS011;23486;51.956;5.888;2023-02-02T01:09:01;16.45;;;2.50;;
37641;SDS011;23486;51.956;5.888;2023-02-02T01:11:27;15.95;;;3.20;;
37641;SDS011;23486;51.956;5.888;2023-02-02T01:13:54;17.52;;;2.85;;
37641;SDS011;23486;51.956;5.888;2023-02-02T01:16:20;22.88;;;3.83;;
37641;SDS011;23486;51.956;5.888;2023-02-02T01:18:49;16.27;;;2.65;;
37641;SDS011;23486;51.956;5.888;2023-02-02T01:21:15;10.10;;;1.80;;
37641;SDS011;23486;51.956;5.888;2023-02-02T01:23:40;20.55;;;2.17;;
37641;SDS011;23486;51.956;5.888;2023-02-02T01:26:07;16.33;;;1.73;;
37641;SDS011;23486;51.956;5.888;2023-02-02T01:28:37;15.15;;;1.60;;
37641;SDS011;23486;51.956;5.888;2023-02-02T01:31:08;16.63;;;2.55;;
37641;SDS011;23486;51.956;5.888;2023-02-02T01:33:35;20.50;;;2.88;;
37641;SDS011;23486;51.956;5.888;2023-02-02T01:42:45;14.32;;;2.35;;
37641;SDS011;23486;51.956;5.888;2023-02-02T01:45:13;18.08;;;2.78;;
37641;SDS011;23486;51.956;5.888;2023-02-02T01:47:46;16.95;;;2.92;;
37641;SDS011;23486;51.956;5.888;2023-02-02T01:50:17;17.08;;;2.80;;
37641;SDS011;23486;51.956;5.888;2023-02-02T01:52:46;16.63;;;2.45;;
37641;SDS011;23486;51.956;5.888;2023-02-02T01:55:14;13.35;;;1.90;;
37641;SDS011;23486;51.956;5.888;2023-02-02T01:57:47;12.93;;;2.03;;
37641;SDS011;23486;51.956;5.888;2023-02-02T02:00:16;26.25;;;4.13;;
37641;SDS011;23486;51.956;5.888;2023-02-02T02:02:48;14.77;;;2.50;;
37641;SDS011;23486;51.956;5.888;2023-02-02T02:05:18;22.67;;;3.40;;
37641;SDS011;23486;51.956;5.888;2023-02-02T02:07:52;17.80;;;2.33;;
37641;SDS011;23486;51.956;5.888;2023-02-02T02:10:22;19.38;;;2.20;;
37641;SDS011;23486;51.956;5.888;2023-02-02T02:12:47;16.30;;;2.25;;
37641;SDS011;23486;51.956;5.888;2023-02-02T02:15:18;18.23;;;1.60;;
37641;SDS011;23486;51.956;5.888;2023-02-02T02:24:57;12.45;;;1.25;;
37641;SDS011;23486;51.956;5.888;2023-02-02T02:41:27;6.50;;;0.70;;
37641;SDS011;23486;51.956;5.888;2023-02-02T02:44:01;15.73;;;1.50;;
37641;SDS011;23486;51.956;5.888;2023-02-02T02:46:30;8.48;;;0.70;;
37641;SDS011;23486;51.956;5.888;2023-02-02T02:48:59;5.95;;;0.82;;
37641;SDS011;23486;51.956;5.888;2023-02-02T02:51:40;8.75;;;0.90;;
37641;SDS011;23486;51.956;5.888;2023-02-02T02:54:17;9.65;;;0.80;;
37641;SDS011;23486;51.956;5.888;2023-02-02T02:56:49;9.52;;;1.42;;
37641;SDS011;23486;51.956;5.888;2023-02-02T03:07:42;17.13;;;2.10;;
37641;SDS011;23486;51.956;5.888;2023-02-02T03:12:47;7.57;;;2.13;;
37641;SDS011;23486;51.956;5.888;2023-02-02T03:15:20;14.13;;;1.98;;
37641;SDS011;23486;51.956;5.888;2023-02-02T03:17:46;11.25;;;2.47;;
37641;SDS011;23486;51.956;5.888;2023-02-02T03:20:13;15.23;;;2.50;;
37641;SDS011;23486;51.956;5.888;2023-02-02T03:22:39;12.30;;;2.35;;
37641;SDS011;23486;51.956;5.888;2023-02-02T03:25:05;12.15;;;1.90;;
37641;SDS011;23486;51.956;5.888;2023-02-02T03:27:32;9.10;;;1.35;;
37641;SDS011;23486;51.956;5.888;2023-02-02T03:29:58;13.68;;;2.42;;
37641;SDS011;23486;51.956;5.888;2023-02-02T03:32:23;12.48;;;1.88;;
37641;SDS011;23486;51.956;5.888;2023-02-02T03:34:49;11.45;;;2.22;;
37641;SDS011;23486;51.956;5.888;2023-02-02T03:37:15;17.30;;;2.50;;
37641;SDS011;23486;51.956;5.888;2023-02-02T03:39:40;11.10;;;1.90;;
37641;SDS011;23486;51.956;5.888;2023-02-02T03:42:06;15.90;;;3.15;;
37641;SDS011;23486;51.956;5.888;2023-02-02T03:44:31;14.02;;;2.85;;
37641;SDS011;23486;51.956;5.888;2023-02-02T03:46:57;9.70;;;1.65;;
37641;SDS011;23486;51.956;5.888;2023-02-02T03:49:23;12.18;;;1.90;;
37641;SDS011;23486;51.956;5.888;2023-02-02T03:51:48;11.50;;;2.40;;
37641;SDS011;23486;51.956;5.888;2023-02-02T03:54:14;14.90;;;2.08;;
37641;SDS011;23486;51.956;5.888;2023-02-02T03:56:40;15.20;;;2.63;;
37641;SDS011;23486;51.956;5.888;2023-02-02T03:59:07;10.05;;;2.13;;
37641;SDS011;23486;51.956;5.888;2023-02-02T04:01:33;12.25;;;2.05;;
37641;SDS011;23486;51.956;5.888;2023-02-02T04:03:59;15.05;;;2.42;;
37641;SDS011;23486;51.956;5.888;2023-02-02T04:06:24;15.13;;;2.42;;
37641;SDS011;23486;51.956;5.888;2023-02-02T04:08:50;16.27;;;2.20;;
37641;SDS011;23486;51.956;5.888;2023-02-02T04:11:16;21.00;;;4.22;;
37641;SDS011;23486;51.956;5.888;2023-02-02T04:13:42;25.83;;;3.38;;
37641;SDS011;23486;51.956;5.888;2023-02-02T04:16:09;25.42;;;3.88;;
37641;SDS011;23486;51.956;5.888;2023-02-02T04:18:35;20.10;;;2.72;;
37641;SDS011;23486;51.956;5.888;2023-02-02T04:21:02;24.88;;;3.42;;
37641;SDS011;23486;51.956;5.888;2023-02-02T04:23:29;19.80;;;3.00;;
37641;SDS011;23486;51.956;5.888;2023-02-02T04:25:58;22.08;;;3.15;;
37641;SDS011;23486;51.956;5.888;2023-02-02T04:28:24;22.50;;;3.55;;
37641;SDS011;23486;51.956;5.888;2023-02-02T04:30:51;21.15;;;3.33;;
37641;SDS011;23486;51.956;5.888;2023-02-02T04:33:19;13.98;;;2.90;;
37641;SDS011;23486;51.956;5.888;2023-02-02T04:35:48;21.40;;;3.72;;
37641;SDS011;23486;51.956;5.888;2023-02-02T04:38:13;17.65;;;2.80;;
37641;SDS011;23486;51.956;5.888;2023-02-02T04:40:40;16.50;;;2.60;;
37641;SDS011;23486;51.956;5.888;2023-02-02T04:43:07;22.38;;;3.08;;
37641;SDS011;23486;51.956;5.888;2023-02-02T04:45:33;17.98;;;3.03;;
37641;SDS011;23486;51.956;5.888;2023-02-02T04:47:59;18.23;;;3.13;;
37641;SDS011;23486;51.956;5.888;2023-02-02T04:50:25;19.58;;;4.20;;
37641;SDS011;23486;51.956;5.888;2023-02-02T04:52:51;19.33;;;3.00;;
37641;SDS011;23486;51.956;5.888;2023-02-02T04:55:17;23.08;;;3.15;;
37641;SDS011;23486;51.956;5.888;2023-02-02T04:57:42;13.65;;;2.40;;
37641;SDS011;23486;51.956;5.888;2023-02-02T05:00:08;17.80;;;2.65;;
37641;SDS011;23486;51.956;5.888;2023-02-02T05:02:36;25.08;;;3.05;;
37641;SDS011;23486;51.956;5.888;2023-02-02T05:05:02;16.20;;;2.58;;
37641;SDS011;23486;51.956;5.888;2023-02-02T05:07:29;12.90;;;3.13;;
37641;SDS011;23486;51.956;5.888;2023-02-02T05:09:55;16.15;;;2.28;;
37641;SDS011;23486;51.956;5.888;2023-02-02T05:12:21;21.83;;;2.38;;
37641;SDS011;23486;51.956;5.888;2023-02-02T05:14:46;13.85;;;1.70;;
37641;SDS011;23486;51.956;5.888;2023-02-02T05:17:12;14.00;;;2.33;;
37641;SDS011;23486;51.956;5.888;2023-02-02T05:19:37;17.42;;;2.00;;
37641;SDS011;23486;51.956;5.888;2023-02-02T05:22:04;16.45;;;2.63;;
37641;SDS011;23486;51.956;5.888;2023-02-02T05:24:30;18.15;;;3.05;;
37641;SDS011;23486;51.956;5.888;2023-02-02T05:26:56;14.63;;;2.53;;
37641;SDS011;23486;51.956;5.888;2023-02-02T05:29:24;16.80;;;2.75;;
37641;SDS011;23486;51.956;5.888;2023-02-02T05:31:55;18.17;;;2.60;;
37641;SDS011;23486;51.956;5.888;2023-02-02T05:34:21;12.90;;;1.77;;
37641;SDS011;23486;51.956;5.888;2023-02-02T05:36:47;20.33;;;2.45;;
37641;SDS011;23486;51.956;5.888;2023-02-02T05:39:16;19.38;;;2.00;;
37641;SDS011;23486;51.956;5.888;2023-02-02T05:41:41;21.23;;;2.65;;
37641;SDS011;23486;51.956;5.888;2023-02-02T05:44:08;18.60;;;2.42;;
37641;SDS011;23486;51.956;5.888;2023-02-02T05:46:36;21.60;;;3.08;;
37641;SDS011;23486;51.956;5.888;2023-02-02T05:49:01;19.63;;;2.55;;
37641;SDS011;23486;51.956;5.888;2023-02-02T05:51:31;18.83;;;2.70;;
37641;SDS011;23486;51.956;5.888;2023-02-02T05:54:00;30.60;;;3.60;;
37641;SDS011;23486;51.956;5.888;2023-02-02T05:56:25;22.50;;;2.92;;
37641;SDS011;23486;51.956;5.888;2023-02-02T05:58:51;18.67;;;2.67;;
37641;SDS011;23486;51.956;5.888;2023-02-02T06:01:17;19.25;;;2.78;;
37641;SDS011;23486;51.956;5.888;2023-02-02T06:03:43;18.58;;;2.67;;
37641;SDS011;23486;51.956;5.888;2023-02-02T06:06:09;16.70;;;2.85;;
37641;SDS011;23486;51.956;5.888;2023-02-02T06:08:35;13.05;;;2.33;;
37641;SDS011;23486;51.956;5.888;2023-02-02T06:11:10;14.45;;;2.80;;
37641;SDS011;23486;51.956;5.888;2023-02-02T06:13:36;17.45;;;3.45;;
37641;SDS011;23486;51.956;5.888;2023-02-02T06:16:02;20.88;;;3.35;;
37641;SDS011;23486;51.956;5.888;2023-02-02T06:18:28;15.20;;;2.70;;
37641;SDS011;23486;51.956;5.888;2023-02-02T06:20:57;11.25;;;2.25;;
37641;SDS011;23486;51.956;5.888;2023-02-02T06:23:23;15.93;;;2.53;;
37641;SDS011;23486;51.956;5.888;2023-02-02T06:25:49;17.25;;;3.67;;
37641;SDS011;23486;51.956;5.888;2023-02-02T06:28:14;18.20;;;3.65;;
37641;SDS011;23486;51.956;5.888;2023-02-02T06:30:40;19.15;;;3.45;;
37641;SDS011;23486;51.956;5.888;2023-02-02T06:33:05;18.95;;;3.53;;
37641;SDS011;23486;51.956;5.888;2023-02-02T06:35:31;17.95;;;3.28;;
37641;SDS011;23486;51.956;5.888;2023-02-02T06:37:57;18.30;;;3.83;;
37641;SDS011;23486;51.956;5.888;2023-02-02T06:40:23;15.30;;;3.75;;
37641;SDS011;23486;51.956;5.888;2023-02-02T06:42:59;20.13;;;3.22;;
37641;SDS011;23486;51.956;5.888;2023-02-02T06:45:27;17.20;;;3.13;;
37641;SDS011;23486;51.956;5.888;2023-02-02T06:47:53;22.77;;;3.33;;
37641;SDS011;23486;51.956;5.888;2023-02-02T06:50:24;15.43;;;3.10;;
37641;SDS011;23486;51.956;5.888;2023-02-02T06:52:51;15.38;;;2.72;;
37641;SDS011;23486;51.956;5.888;2023-02-02T06:55:17;16.33;;;3.63;;
37641;SDS011;23486;51.956;5.888;2023-02-02T06:57:46;17.58;;;3.15;;
37641;SDS011;23486;51.956;5.888;2023-02-02T07:00:12;21.10;;;3.20;;
37641;SDS011;23486;51.956;5.888;2023-02-02T07:02:38;20.10;;;4.03;;
37641;SDS011;23486;51.956;5.888;2023-02-02T07:05:04;16.08;;;3.05;;
37641;SDS011;23486;51.956;5.888;2023-02-02T07:07:30;19.10;;;2.95;;
37641;SDS011;23486;51.956;5.888;2023-02-02T07:10:00;12.05;;;2.78;;
37641;SDS011;23486;51.956;5.888;2023-02-02T07:12:25;19.65;;;4.18;;
37641;SDS011;23486;51.956;5.888;2023-02-02T07:14:51;18.05;;;3.60;;
37641;SDS011;23486;51.956;5.888;2023-02-02T07:17:18;15.48;;;2.88;;
37641;SDS011;23486;51.956;5.888;2023-02-02T07:19:44;18.08;;;3.10;;
37641;SDS011;23486;51.956;5.888;2023-02-02T07:22:09;13.07;;;2.75;;
37641;SDS011;23486;51.956;5.888;2023-02-02T07:24:35;16.83;;;3.03;;
37641;SDS011;23486;51.956;5.888;2023-02-02T07:27:03;15.65;;;2.05;;
37641;SDS011;23486;51.956;5.888;2023-02-02T07:29:29;14.20;;;2.33;;
37641;SDS011;23486;51.956;5.888;2023-02-02T07:31:55;17.33;;;2.17;;
37641;SDS011;23486;51.956;5.888;2023-02-02T07:34:21;15.98;;;2.53;;
37641;SDS011;23486;51.956;5.888;2023-02-02T07:36:46;14.88;;;3.83;;
37641;SDS011;23486;51.956;5.888;2023-02-02T07:39:12;17.85;;;3.63;;
37641;SDS011;23486;51.956;5.888;2023-02-02T07:41:41;21.30;;;3.40;;
37641;SDS011;23486;51.956;5.888;2023-02-02T07:44:11;12.82;;;2.15;;
37641;SDS011;23486;51.956;5.888;2023-02-02T07:46:41;11.75;;;2.53;;
37641;SDS011;23486;51.956;5.888;2023-02-02T07:49:17;20.02;;;3.63;;
37641;SDS011;23486;51.956;5.888;2023-02-02T07:51:44;16.13;;;3.42;;
37641;SDS011;23486;51.956;5.888;2023-02-02T07:54:13;18.48;;;2.92;;
37641;SDS011;23486;51.956;5.888;2023-02-02T07:56:39;14.18;;;2.85;;
37641;SDS011;23486;51.956;5.888;2023-02-02T07:59:08;20.40;;;3.00;;
37641;SDS011;23486;51.956;5.888;2023-02-02T08:01:38;17.92;;;3.65;;
37641;SDS011;23486;51.956;5.888;2023-02-02T08:04:04;18.10;;;3.08;;
37641;SDS011;23486;51.956;5.888;2023-02-02T08:06:31;24.55;;;4.00;;
37641;SDS011;23486;51.956;5.888;2023-02-02T08:08:58;16.95;;;3.88;;
37641;SDS011;23486;51.956;5.888;2023-02-02T08:11:25;18.52;;;4.03;;
37641;SDS011;23486;51.956;5.888;2023-02-02T08:13:53;15.50;;;3.33;;
37641;SDS011;23486;51.956;5.888;2023-02-02T08:16:23;23.17;;;4.20;;
37641;SDS011;23486;51.956;5.888;2023-02-02T08:18:52;24.52;;;5.13;;
37641;SDS011;23486;51.956;5.888;2023-02-02T08:21:18;16.45;;;4.25;;
37641;SDS011;23486;51.956;5.888;2023-02-02T08:23:47;16.70;;;3.72;;
37641;SDS011;23486;51.956;5.888;2023-02-02T08:26:21;23.98;;;4.55;;
37641;SDS011;23486;51.956;5.888;2023-02-02T08:28:52;20.08;;;5.05;;
37641;SDS011;23486;51.956;5.888;2023-02-02T08:31:21;17.33;;;3.60;;
37641;SDS011;23486;51.956;5.888;2023-02-02T08:33:49;20.85;;;4.63;;
37641;SDS011;23486;51.956;5.888;2023-02-02T08:36:16;17.65;;;3.83;;
37641;SDS011;23486;51.956;5.888;2023-02-02T08:38:43;18.30;;;4.25;;
37641;SDS011;23486;51.956;5.888;2023-02-02T08:41:10;15.15;;;4.05;;
37641;SDS011;23486;51.956;5.888;2023-02-02T08:43:37;14.85;;;3.42;;
37641;SDS011;23486;51.956;5.888;2023-02-02T08:46:04;16.33;;;4.18;;
37641;SDS011;23486;51.956;5.888;2023-02-02T08:48:31;21.00;;;3.85;;
37641;SDS011;23486;51.956;5.888;2023-02-02T08:50:58;21.38;;;4.47;;
37641;SDS011;23486;51.956;5.888;2023-02-02T08:53:23;14.70;;;3.60;;
37641;SDS011;23486;51.956;5.888;2023-02-02T08:56:00;18.52;;;4.50;;
37641;SDS011;23486;51.956;5.888;2023-02-02T08:58:27;22.95;;;4.68;;
37641;SDS011;23486;51.956;5.888;2023-02-02T09:00:54;27.23;;;4.75;;
37641;SDS011;23486;51.956;5.888;2023-02-02T09:03:27;27.27;;;4.22;;
37641;SDS011;23486;51.956;5.888;2023-02-02T09:05:53;17.23;;;3.25;;
37641;SDS011;23486;51.956;5.888;2023-02-02T09:08:18;17.67;;;4.68;;
37641;SDS011;23486;51.956;5.888;2023-02-02T09:10:44;20.77;;;3.70;;
37641;SDS011;23486;51.956;5.888;2023-02-02T09:13:12;16.35;;;4.13;;
37641;SDS011;23486;51.956;5.888;2023-02-02T09:15:38;18.35;;;3.58;;
37641;SDS011;23486;51.956;5.888;2023-02-02T09:18:03;22.70;;;4.63;;
37641;SDS011;23486;51.956;5.888;2023-02-02T09:20:29;19.08;;;3.28;;
37641;SDS011;23486;51.956;5.888;2023-02-02T09:22:55;13.35;;;3.50;;
37641;SDS011;23486;51.956;5.888;2023-02-02T09:25:21;17.95;;;3.08;;
37641;SDS011;23486;51.956;5.888;2023-02-02T09:27:48;16.77;;;4.10;;
37641;SDS011;23486;51.956;5.888;2023-02-02T09:30:14;24.15;;;4.45;;
37641;SDS011;23486;51.956;5.888;2023-02-02T09:32:43;21.75;;;3.95;;
37641;SDS011;23486;51.956;5.888;2023-02-02T09:35:09;18.55;;;2.97;;
37641;SDS011;23486;51.956;5.888;2023-02-02T09:37:35;18.00;;;3.65;;
37641;SDS011;23486;51.956;5.888;2023-02-02T09:40:03;16.40;;;2.47;;
37641;SDS011;23486;51.956;5.888;2023-02-02T09:44:56;19.25;;;3.17;;
37641;SDS011;23486;51.956;5.888;2023-02-02T09:53:13;22.58;;;2.92;;
37641;SDS011;23486;51.956;5.888;2023-02-02T09:55:48;22.88;;;3.00;;
37641;SDS011;23486;51.956;5.888;2023-02-02T09:58:32;20.15;;;2.80;;
37641;SDS011;23486;51.956;5.888;2023-02-02T10:01:25;16.33;;;3.28;;
37641;SDS011;23486;51.956;5.888;2023-02-02T10:04:04;12.15;;;3.00;;
37641;SDS011;23486;51.956;5.888;2023-02-02T10:06:59;16.65;;;3.47;;
37641;SDS011;23486;51.956;5.888;2023-02-02T10:20:43;17.52;;;3.22;;
37641;SDS011;23486;51.956;5.888;2023-02-02T10:23:17;16.48;;;3.35;;
37641;SDS011;23486;51.956;5.888;2023-02-02T10:28:40;19.58;;;2.65;;
37641;SDS011;23486;51.956;5.888;2023-02-02T10:34:18;15.05;;;3.13;;
37641;SDS011;23486;51.956;5.888;2023-02-02T10:37:13;11.93;;;1.80;;
37641;SDS011;23486;51.956;5.888;2023-02-02T10:45:53;11.18;;;2.20;;
37641;SDS011;23486;51.956;5.888;2023-02-02T10:48:25;14.20;;;2.35;;
37641;SDS011;23486;51.956;5.888;2023-02-02T10:51:00;10.63;;;3.00;;
37641;SDS011;23486;51.956;5.888;2023-02-02T10:53:31;14.45;;;2.40;;
37641;SDS011;23486;51.956;5.888;2023-02-02T10:56:09;10.80;;;2.55;;
37641;SDS011;23486;51.956;5.888;2023-02-02T10:58:39;16.85;;;2.88;;
37641;SDS011;23486;51.956;5.888;2023-02-02T11:01:08;14.23;;;2.50;;
37641;SDS011;23486;51.956;5.888;2023-02-02T11:03:35;20.70;;;3.75;;
37641;SDS011;23486;51.956;5.888;2023-02-02T11:06:03;18.10;;;2.63;;
37641;SDS011;23486;51.956;5.888;2023-02-02T11:08:50;14.95;;;3.17;;
37641;SDS011;23486;51.956;5.888;2023-02-02T11:11:25;10.95;;;2.58;;
37641;SDS011;23486;51.956;5.888;2023-02-02T11:14:09;17.48;;;2.80;;
37641;SDS011;23486;51.956;5.888;2023-02-02T11:16:43;13.30;;;2.20;;
37641;SDS011;23486;51.956;5.888;2023-02-02T11:21:47;14.00;;;2.50;;
37641;SDS011;23486;51.956;5.888;2023-02-02T11:24:31;9.20;;;2.22;;
37641;SDS011;23486;51.956;5.888;2023-02-02T11:29:47;12.77;;;2.03;;
37641;SDS011;23486;51.956;5.888;2023-02-02T11:37:36;8.75;;;1.95;;
37641;SDS011;23486;51.956;5.888;2023-02-02T11:42:48;12.50;;;2.72;;
37641;SDS011;23486;51.956;5.888;2023-02-02T11:45:18;14.88;;;2.47;;
37641;SDS011;23486;51.956;5.888;2023-02-02T11:47:58;12.23;;;2.28;;
37641;SDS011;23486;51.956;5.888;2023-02-02T11:50:26;17.50;;;2.28;;
37641;SDS011;23486;51.956;5.888;2023-02-02T11:52:52;21.90;;;3.40;;
37641;SDS011;23486;51.956;5.888;2023-02-02T11:55:26;15.50;;;2.08;;
37641;SDS011;23486;51.956;5.888;2023-02-02T12:00:52;10.93;;;1.95;;
37641;SDS011;23486;51.956;5.888;2023-02-02T12:03:33;12.43;;;2.30;;
37641;SDS011;23486;51.956;5.888;2023-02-02T12:06:01;18.60;;;2.85;;
37641;SDS011;23486;51.956;5.888;2023-02-02T12:08:42;11.00;;;2.15;;
37641;SDS011;23486;51.956;5.888;2023-02-02T12:11:08;14.90;;;3.05;;
37641;SDS011;23486;51.956;5.888;2023-02-02T12:14:04;15.85;;;2.13;;
37641;SDS011;23486;51.956;5.888;2023-02-02T12:25:50;9.43;;;1.45;;
37641;SDS011;23486;51.956;5.888;2023-02-02T12:31:22;13.45;;;1.17;;
37641;SDS011;23486;51.956;5.888;2023-02-02T12:45:14;13.93;;;1.52;;
37641;SDS011;23486;51.956;5.888;2023-02-02T12:50:29;6.82;;;1.85;;
37641;SDS011;23486;51.956;5.888;2023-02-02T12:56:14;7.75;;;0.77;;
37641;SDS011;23486;51.956;5.888;2023-02-02T13:06:52;12.05;;;1.20;;
37641;SDS011;23486;51.956;5.888;2023-02-02T13:12:23;9.00;;;1.42;;
37641;SDS011;23486;51.956;5.888;2023-02-02T13:14:52;11.02;;;2.08;;
37641;SDS011;23486;51.956;5.888;2023-02-02T13:17:37;15.80;;;1.90;;
37641;SDS011;23486;51.956;5.888;2023-02-02T13:20:22;18.05;;;2.53;;
37641;SDS011;23486;51.956;5.888;2023-02-02T13:22:53;17.45;;;2.38;;
37641;SDS011;23486;51.956;5.888;2023-02-02T13:25:28;16.77;;;3.63;;
37641;SDS011;23486;51.956;5.888;2023-02-02T13:27:58;17.20;;;2.67;;
37641;SDS011;23486;51.956;5.888;2023-02-02T13:30:27;18.23;;;3.38;;
37641;SDS011;23486;51.956;5.888;2023-02-02T13:32:59;18.45;;;2.60;;
37641;SDS011;23486;51.956;5.888;2023-02-02T13:35:30;21.98;;;3.50;;
37641;SDS011;23486;51.956;5.888;2023-02-02T13:38:25;13.40;;;2.97;;
37641;SDS011;23486;51.956;5.888;2023-02-02T13:40:59;19.33;;;4.03;;
37641;SDS011;23486;51.956;5.888;2023-02-02T13:59:59;13.75;;;5.22;;
37641;SDS011;23486;51.956;5.888;2023-02-02T14:02:33;15.85;;;5.28;;
37641;SDS011;23486;51.956;5.888;2023-02-02T14:05:05;19.63;;;6.63;;
37641;SDS011;23486;51.956;5.888;2023-02-02T14:07:37;19.77;;;6.90;;
37641;SDS011;23486;51.956;5.888;2023-02-02T14:10:06;15.95;;;7.10;;
37641;SDS011;23486;51.956;5.888;2023-02-02T14:12:47;20.58;;;9.38;;
37641;SDS011;23486;51.956;5.888;2023-02-02T14:15:13;20.33;;;7.78;;
37641;SDS011;23486;51.956;5.888;2023-02-02T14:29:09;22.40;;;9.23;;
37641;SDS011;23486;51.956;5.888;2023-02-02T14:34:57;17.92;;;9.15;;
37641;SDS011;23486;51.956;5.888;2023-02-02T14:42:43;18.88;;;9.10;;
37641;SDS011;23486;51.956;5.888;2023-02-02T14:48:46;16.13;;;7.10;;
37641;SDS011;23486;51.956;5.888;2023-02-02T14:51:43;15.10;;;8.50;;
37641;SDS011;23486;51.956;5.888;2023-02-02T14:54:17;14.13;;;7.65;;
37641;SDS011;23486;51.956;5.888;2023-02-02T14:56:52;14.68;;;8.00;;
37641;SDS011;23486;51.956;5.888;2023-02-02T14:59:39;9.57;;;6.00;;
37641;SDS011;23486;51.956;5.888;2023-02-02T15:04:46;11.30;;;6.45;;
37641;SDS011;23486;51.956;5.888;2023-02-02T15:09:51;10.77;;;7.18;;
37641;SDS011;23486;51.956;5.888;2023-02-02T15:12:28;11.07;;;6.67;;
37641;SDS011;23486;51.956;5.888;2023-02-02T15:15:19;13.95;;;6.35;;
37641;SDS011;23486;51.956;5.888;2023-02-02T15:17:50;8.07;;;5.78;;
37641;SDS011;23486;51.956;5.888;2023-02-02T15:20:29;13.15;;;8.18;;
37641;SDS011;23486;51.956;5.888;2023-02-02T15:23:06;11.73;;;7.35;;
37641;SDS011;23486;51.956;5.888;2023-02-02T15:33:58;13.15;;;6.28;;
37641;SDS011;23486;51.956;5.888;2023-02-02T15:36:34;11.10;;;5.78;;
37641;SDS011;23486;51.956;5.888;2023-02-02T15:39:07;7.28;;;5.30;;
37641;SDS011;23486;51.956;5.888;2023-02-02T15:41:49;9.80;;;5.22;;
37641;SDS011;23486;51.956;5.888;2023-02-02T15:44:36;11.55;;;7.45;;
37641;SDS011;23486;51.956;5.888;2023-02-02T15:47:03;9.27;;;5.80;;
37641;SDS011;23486;51.956;5.888;2023-02-02T15:49:31;12.15;;;7.93;;
37641;SDS011;23486;51.956;5.888;2023-02-02T15:51:59;11.07;;;7.50;;
37641;SDS011;23486;51.956;5.888;2023-02-02T15:54:31;11.90;;;7.03;;
37641;SDS011;23486;51.956;5.888;2023-02-02T15:56:59;11.10;;;7.05;;
37641;SDS011;23486;51.956;5.888;2023-02-02T15:59:27;13.35;;;8.63;;
37641;SDS011;23486;51.956;5.888;2023-02-02T16:04:36;12.70;;;8.95;;
37641;SDS011;23486;51.956;5.888;2023-02-02T16:07:04;12.43;;;8.82;;
37641;SDS011;23486;51.956;5.888;2023-02-02T16:09:35;16.58;;;9.88;;
37641;SDS011;23486;51.956;5.888;2023-02-02T16:12:02;12.25;;;8.43;;
37641;SDS011;23486;51.956;5.888;2023-02-02T16:14:37;12.27;;;9.98;;
37641;SDS011;23486;51.956;5.888;2023-02-02T16:17:27;14.55;;;10.35;;
37641;SDS011;23486;51.956;5.888;2023-02-02T16:19:59;16.20;;;10.68;;
37641;SDS011;23486;51.956;5.888;2023-02-02T16:22:31;16.25;;;11.60;;
37641;SDS011;23486;51.956;5.888;2023-02-02T16:24:58;17.20;;;12.15;;
37641;SDS011;23486;51.956;5.888;2023-02-02T16:27:38;15.73;;;11.70;;
37641;SDS011;23486;51.956;5.888;2023-02-02T16:30:09;16.15;;;12.32;;
37641;SDS011;23486;51.956;5.888;2023-02-02T16:32:52;18.00;;;12.57;;
37641;SDS011;23486;51.956;5.888;2023-02-02T16:40:47;17.23;;;13.70;;
37641;SDS011;23486;51.956;5.888;2023-02-02T16:43:19;19.92;;;14.40;;
37641;SDS011;23486;51.956;5.888;2023-02-02T16:45:54;18.75;;;14.32;;
37641;SDS011;23486;51.956;5.888;2023-02-02T16:48:32;22.05;;;15.40;;
37641;SDS011;23486;51.956;5.888;2023-02-02T16:53:54;19.25;;;13.88;;
37641;SDS011;23486;51.956;5.888;2023-02-02T16:59:02;26.80;;;19.15;;
37641;SDS011;23486;51.956;5.888;2023-02-02T17:01:41;23.67;;;16.17;;
37641;SDS011;23486;51.956;5.888;2023-02-02T17:04:17;26.25;;;17.92;;
37641;SDS011;23486;51.956;5.888;2023-02-02T17:06:47;24.92;;;18.75;;
37641;SDS011;23486;51.956;5.888;2023-02-02T17:09:26;26.70;;;17.30;;
37641;SDS011;23486;51.956;5.888;2023-02-02T17:14:50;29.48;;;18.48;;
37641;SDS011;23486;51.956;5.888;2023-02-02T17:17:29;35.17;;;21.23;;
37641;SDS011;23486;51.956;5.888;2023-02-02T17:19:55;29.00;;;18.35;;
37641;SDS011;23486;51.956;5.888;2023-02-02T17:22:22;28.42;;;18.67;;
37641;SDS011;23486;51.956;5.888;2023-02-02T17:24:50;34.63;;;21.35;;
37641;SDS011;23486;51.956;5.888;2023-02-02T17:27:25;27.73;;;18.95;;
37641;SDS011;23486;51.956;5.888;2023-02-02T17:29:52;34.28;;;19.33;;
37641;SDS011;23486;51.956;5.888;2023-02-02T17:32:19;32.17;;;20.42;;
37641;SDS011;23486;51.956;5.888;2023-02-02T17:34:44;40.97;;;22.55;;
37641;SDS011;23486;51.956;5.888;2023-02-02T17:37:10;33.35;;;18.77;;
37641;SDS011;23486;51.956;5.888;2023-02-02T17:39:36;33.47;;;19.05;;
37641;SDS011;23486;51.956;5.888;2023-02-02T17:42:02;29.88;;;18.30;;
37641;SDS011;23486;51.956;5.888;2023-02-02T17:44:28;35.17;;;19.48;;
37641;SDS011;23486;51.956;5.888;2023-02-02T17:46:54;29.55;;;16.80;;
37641;SDS011;23486;51.956;5.888;2023-02-02T17:49:19;32.50;;;17.95;;
37641;SDS011;23486;51.956;5.888;2023-02-02T17:51:45;31.13;;;15.02;;
37641;SDS011;23486;51.956;5.888;2023-02-02T17:54:11;22.98;;;13.05;;
37641;SDS011;23486;51.956;5.888;2023-02-02T17:56:38;29.02;;;13.25;;
37641;SDS011;23486;51.956;5.888;2023-02-02T17:59:05;28.13;;;11.93;;
37641;SDS011;23486;51.956;5.888;2023-02-02T18:01:31;26.45;;;11.98;;
37641;SDS011;23486;51.956;5.888;2023-02-02T18:03:57;20.15;;;10.27;;